sensor_id;sensor_type;location;lat;lon;timestamp;temperature;humidity
59977;DHT22;45837;51.076;3.578;2024-03-02T00:00:11;19.40;55.60
59977;DHT22;45837;51.076;3.578;2024-03-02T00:02:43;19.40;55.60
59977;DHT22;45837;51.076;3.578;2024-03-02T00:05:28;19.40;55.60
59977;DHT22;45837;51.076;3.578;2024-03-02T00:07:56;19.40;55.60
59977;DHT22;45837;51.076;3.578;2024-03-02T00:10:25;19.30;55.50
59977;DHT22;45837;51.076;3.578;2024-03-02T00:12:55;19.30;55.50
59977;DHT22;45837;51.076;3.578;2024-03-02T00:17:56;19.30;55.50
59977;DHT22;45837;51.076;3.578;2024-03-02T00:20:23;19.30;55.50
59977;DHT22;45837;51.076;3.578;2024-03-02T00:22:50;19.30;55.50
59977;DHT22;45837;51.076;3.578;2024-03-02T00:25:16;19.30;55.50
59977;DHT22;45837;51.076;3.578;2024-03-02T00:27:42;19.30;55.50
59977;DHT22;45837;51.076;3.578;2024-03-02T00:33:37;19.30;55.30
59977;DHT22;45837;51.076;3.578;2024-03-02T00:36:06;19.20;55.40
59977;DHT22;45837;51.076;3.578;2024-03-02T00:38:33;19.30;55.40
59977;DHT22;45837;51.076;3.578;2024-03-02T00:41:04;19.30;55.40
59977;DHT22;45837;51.076;3.578;2024-03-02T00:46:04;19.20;55.30
59977;DHT22;45837;51.076;3.578;2024-03-02T00:48:30;19.20;55.40
59977;DHT22;45837;51.076;3.578;2024-03-02T00:50:57;19.20;55.40
59977;DHT22;45837;51.076;3.578;2024-03-02T00:53:24;19.20;55.40
59977;DHT22;45837;51.076;3.578;2024-03-02T00:55:52;19.20;55.30
59977;DHT22;45837;51.076;3.578;2024-03-02T00:58:18;19.20;55.30
59977;DHT22;45837;51.076;3.578;2024-03-02T01:00:44;19.20;55.40
59977;DHT22;45837;51.076;3.578;2024-03-02T01:03:10;19.20;55.40
59977;DHT22;45837;51.076;3.578;2024-03-02T01:05:36;19.20;55.40
59977;DHT22;45837;51.076;3.578;2024-03-02T01:08:02;19.20;55.40
59977;DHT22;45837;51.076;3.578;2024-03-02T01:10:28;19.20;55.30
59977;DHT22;45837;51.076;3.578;2024-03-02T01:12:54;19.20;55.40
59977;DHT22;45837;51.076;3.578;2024-03-02T01:15:20;19.10;55.30
59977;DHT22;45837;51.076;3.578;2024-03-02T01:17:46;19.20;55.30
59977;DHT22;45837;51.076;3.578;2024-03-02T01:20:12;19.20;55.30
59977;DHT22;45837;51.076;3.578;2024-03-02T01:22:38;19.10;55.30
59977;DHT22;45837;51.076;3.578;2024-03-02T01:25:04;19.10;55.30
59977;DHT22;45837;51.076;3.578;2024-03-02T01:27:29;19.10;55.20
59977;DHT22;45837;51.076;3.578;2024-03-02T01:29:55;19.10;55.20
59977;DHT22;45837;51.076;3.578;2024-03-02T01:32:21;19.10;55.20
59977;DHT22;45837;51.076;3.578;2024-03-02T01:34:47;19.10;55.30
59977;DHT22;45837;51.076;3.578;2024-03-02T01:37:13;19.10;55.20
59977;DHT22;45837;51.076;3.578;2024-03-02T01:39:39;19.10;55.30
59977;DHT22;45837;51.076;3.578;2024-03-02T01:42:04;19.10;55.30
59977;DHT22;45837;51.076;3.578;2024-03-02T01:44:30;19.10;55.80
59977;DHT22;45837;51.076;3.578;2024-03-02T01:46:56;19.10;55.20
59977;DHT22;45837;51.076;3.578;2024-03-02T01:49:22;19.10;55.20
59977;DHT22;45837;51.076;3.578;2024-03-02T01:51:48;19.10;55.20
59977;DHT22;45837;51.076;3.578;2024-03-02T01:54:14;19.00;55.10
59977;DHT22;45837;51.076;3.578;2024-03-02T01:56:40;19.10;55.20
59977;DHT22;45837;51.076;3.578;2024-03-02T01:59:06;19.00;55.10
59977;DHT22;45837;51.076;3.578;2024-03-02T02:01:32;19.00;55.10
59977;DHT22;45837;51.076;3.578;2024-03-02T02:03:57;19.10;55.10
59977;DHT22;45837;51.076;3.578;2024-03-02T02:06:23;19.00;55.10
59977;DHT22;45837;51.076;3.578;2024-03-02T02:08:49;19.00;55.10
59977;DHT22;45837;51.076;3.578;2024-03-02T02:11:15;19.00;55.10
59977;DHT22;45837;51.076;3.578;2024-03-02T02:13:41;19.00;55.00
59977;DHT22;45837;51.076;3.578;2024-03-02T02:16:08;19.00;55.10
59977;DHT22;45837;51.076;3.578;2024-03-02T02:18:34;19.00;55.00
59977;DHT22;45837;51.076;3.578;2024-03-02T02:21:00;19.00;55.00
59977;DHT22;45837;51.076;3.578;2024-03-02T02:23:26;19.00;55.10
59977;DHT22;45837;51.076;3.578;2024-03-02T02:25:52;19.00;55.00
59977;DHT22;45837;51.076;3.578;2024-03-02T02:28:18;19.00;55.00
59977;DHT22;45837;51.076;3.578;2024-03-02T02:30:43;19.00;55.10
59977;DHT22;45837;51.076;3.578;2024-03-02T02:33:09;19.00;55.00
59977;DHT22;45837;51.076;3.578;2024-03-02T02:35:35;19.00;55.00
59977;DHT22;45837;51.076;3.578;2024-03-02T02:38:02;19.00;55.60
59977;DHT22;45837;51.076;3.578;2024-03-02T02:40:28;18.90;54.90
59977;DHT22;45837;51.076;3.578;2024-03-02T02:42:57;19.00;54.90
59977;DHT22;45837;51.076;3.578;2024-03-02T02:45:25;19.00;54.90
59977;DHT22;45837;51.076;3.578;2024-03-02T02:47:50;18.90;54.90
59977;DHT22;45837;51.076;3.578;2024-03-02T02:50:16;18.90;54.90
59977;DHT22;45837;51.076;3.578;2024-03-02T02:52:43;18.90;54.80
59977;DHT22;45837;51.076;3.578;2024-03-02T02:55:11;18.90;54.90
59977;DHT22;45837;51.076;3.578;2024-03-02T02:57:39;18.90;54.80
59977;DHT22;45837;51.076;3.578;2024-03-02T03:00:06;18.90;54.80
59977;DHT22;45837;51.076;3.578;2024-03-02T03:02:39;18.90;54.80
59977;DHT22;45837;51.076;3.578;2024-03-02T03:05:06;18.90;54.80
59977;DHT22;45837;51.076;3.578;2024-03-02T03:07:32;18.90;54.80
59977;DHT22;45837;51.076;3.578;2024-03-02T03:09:59;18.90;54.80
59977;DHT22;45837;51.076;3.578;2024-03-02T03:12:25;18.90;54.90
59977;DHT22;45837;51.076;3.578;2024-03-02T03:14:51;18.90;54.80
59977;DHT22;45837;51.076;3.578;2024-03-02T03:17:17;18.90;54.80
59977;DHT22;45837;51.076;3.578;2024-03-02T03:19:42;18.90;54.90
59977;DHT22;45837;51.076;3.578;2024-03-02T03:22:08;18.90;54.90
59977;DHT22;45837;51.076;3.578;2024-03-02T03:24:34;18.90;54.90
59977;DHT22;45837;51.076;3.578;2024-03-02T03:27:00;18.80;54.80
59977;DHT22;45837;51.076;3.578;2024-03-02T03:29:25;18.80;54.80
59977;DHT22;45837;51.076;3.578;2024-03-02T03:31:51;18.80;54.70
59977;DHT22;45837;51.076;3.578;2024-03-02T03:34:17;18.80;54.80
59977;DHT22;45837;51.076;3.578;2024-03-02T03:36:43;18.80;54.70
59977;DHT22;45837;51.076;3.578;2024-03-02T03:39:09;18.80;54.70
59977;DHT22;45837;51.076;3.578;2024-03-02T03:41:34;18.80;54.70
59977;DHT22;45837;51.076;3.578;2024-03-02T03:44:00;18.80;54.70
59977;DHT22;45837;51.076;3.578;2024-03-02T03:46:26;18.80;54.70
59977;DHT22;45837;51.076;3.578;2024-03-02T03:48:51;18.80;54.70
59977;DHT22;45837;51.076;3.578;2024-03-02T03:51:17;18.80;54.70
59977;DHT22;45837;51.076;3.578;2024-03-02T03:53:43;18.70;54.70
59977;DHT22;45837;51.076;3.578;2024-03-02T03:56:09;18.80;54.70
59977;DHT22;45837;51.076;3.578;2024-03-02T03:58:35;18.80;54.70
59977;DHT22;45837;51.076;3.578;2024-03-02T04:01:00;18.80;54.70
59977;DHT22;45837;51.076;3.578;2024-03-02T04:03:26;18.80;54.70
59977;DHT22;45837;51.076;3.578;2024-03-02T04:05:52;18.80;54.60
59977;DHT22;45837;51.076;3.578;2024-03-02T04:08:18;18.80;54.60
59977;DHT22;45837;51.076;3.578;2024-03-02T04:10:43;18.80;54.70
59977;DHT22;45837;51.076;3.578;2024-03-02T04:13:09;18.70;54.60
59977;DHT22;45837;51.076;3.578;2024-03-02T04:15:35;18.80;54.60
59977;DHT22;45837;51.076;3.578;2024-03-02T04:18:01;18.70;54.60
59977;DHT22;45837;51.076;3.578;2024-03-02T04:20:27;18.70;54.60
59977;DHT22;45837;51.076;3.578;2024-03-02T04:22:52;18.70;54.60
59977;DHT22;45837;51.076;3.578;2024-03-02T04:25:18;18.70;54.60
59977;DHT22;45837;51.076;3.578;2024-03-02T04:27:45;18.70;54.50
59977;DHT22;45837;51.076;3.578;2024-03-02T04:30:11;18.70;54.60
59977;DHT22;45837;51.076;3.578;2024-03-02T04:32:37;18.70;54.50
59977;DHT22;45837;51.076;3.578;2024-03-02T04:35:03;18.70;54.50
59977;DHT22;45837;51.076;3.578;2024-03-02T04:37:29;18.70;54.50
59977;DHT22;45837;51.076;3.578;2024-03-02T04:39:56;18.70;53.90
59977;DHT22;45837;51.076;3.578;2024-03-02T04:42:22;18.70;54.50
59977;DHT22;45837;51.076;3.578;2024-03-02T04:44:48;18.70;54.60
59977;DHT22;45837;51.076;3.578;2024-03-02T04:47:14;18.70;54.60
59977;DHT22;45837;51.076;3.578;2024-03-02T04:49:39;18.70;54.60
59977;DHT22;45837;51.076;3.578;2024-03-02T04:52:05;18.70;54.50
59977;DHT22;45837;51.076;3.578;2024-03-02T04:54:31;18.70;54.40
59977;DHT22;45837;51.076;3.578;2024-03-02T04:56:57;18.70;54.60
59977;DHT22;45837;51.076;3.578;2024-03-02T04:59:23;18.70;54.40
59977;DHT22;45837;51.076;3.578;2024-03-02T05:01:49;18.60;54.40
59977;DHT22;45837;51.076;3.578;2024-03-02T05:04:15;18.70;55.00
59977;DHT22;45837;51.076;3.578;2024-03-02T05:06:41;18.60;54.40
59977;DHT22;45837;51.076;3.578;2024-03-02T05:09:08;18.60;54.40
59977;DHT22;45837;51.076;3.578;2024-03-02T05:11:34;18.60;54.40
59977;DHT22;45837;51.076;3.578;2024-03-02T05:14:03;18.60;54.30
59977;DHT22;45837;51.076;3.578;2024-03-02T05:16:29;18.60;54.40
59977;DHT22;45837;51.076;3.578;2024-03-02T05:18:55;18.60;54.40
59977;DHT22;45837;51.076;3.578;2024-03-02T05:21:21;18.60;54.40
59977;DHT22;45837;51.076;3.578;2024-03-02T05:23:46;18.60;54.30
59977;DHT22;45837;51.076;3.578;2024-03-02T05:26:12;18.60;54.40
59977;DHT22;45837;51.076;3.578;2024-03-02T05:28:38;18.60;54.30
59977;DHT22;45837;51.076;3.578;2024-03-02T05:31:04;18.60;54.40
59977;DHT22;45837;51.076;3.578;2024-03-02T05:33:30;18.60;54.30
59977;DHT22;45837;51.076;3.578;2024-03-02T05:35:58;18.60;54.30
59977;DHT22;45837;51.076;3.578;2024-03-02T05:38:24;18.60;54.40
59977;DHT22;45837;51.076;3.578;2024-03-02T05:40:50;18.60;54.30
59977;DHT22;45837;51.076;3.578;2024-03-02T05:43:16;18.60;54.30
59977;DHT22;45837;51.076;3.578;2024-03-02T05:45:42;18.60;54.30
59977;DHT22;45837;51.076;3.578;2024-03-02T05:48:08;18.60;54.30
59977;DHT22;45837;51.076;3.578;2024-03-02T05:50:35;18.60;54.30
59977;DHT22;45837;51.076;3.578;2024-03-02T05:53:00;18.50;54.20
59977;DHT22;45837;51.076;3.578;2024-03-02T05:55:26;18.50;54.20
59977;DHT22;45837;51.076;3.578;2024-03-02T05:57:52;18.50;54.20
59977;DHT22;45837;51.076;3.578;2024-03-02T06:00:23;18.50;54.10
59977;DHT22;45837;51.076;3.578;2024-03-02T06:02:49;18.50;54.20
59977;DHT22;45837;51.076;3.578;2024-03-02T06:05:15;18.50;54.30
59977;DHT22;45837;51.076;3.578;2024-03-02T06:07:44;18.50;54.20
59977;DHT22;45837;51.076;3.578;2024-03-02T06:10:10;18.50;54.30
59977;DHT22;45837;51.076;3.578;2024-03-02T06:12:36;18.50;54.70
59977;DHT22;45837;51.076;3.578;2024-03-02T06:15:02;18.50;54.20
59977;DHT22;45837;51.076;3.578;2024-03-02T06:17:29;18.50;54.30
59977;DHT22;45837;51.076;3.578;2024-03-02T06:19:55;18.40;54.20
59977;DHT22;45837;51.076;3.578;2024-03-02T06:22:21;18.50;54.10
59977;DHT22;45837;51.076;3.578;2024-03-02T06:24:48;18.40;54.10
59977;DHT22;45837;51.076;3.578;2024-03-02T06:27:14;18.50;54.10
59977;DHT22;45837;51.076;3.578;2024-03-02T06:29:40;18.50;54.20
59977;DHT22;45837;51.076;3.578;2024-03-02T06:32:06;18.50;54.10
59977;DHT22;45837;51.076;3.578;2024-03-02T06:34:32;18.40;54.70
59977;DHT22;45837;51.076;3.578;2024-03-02T06:36:57;18.40;54.10
59977;DHT22;45837;51.076;3.578;2024-03-02T06:39:23;18.40;54.10
59977;DHT22;45837;51.076;3.578;2024-03-02T06:41:49;18.40;54.10
59977;DHT22;45837;51.076;3.578;2024-03-02T06:44:14;18.40;54.10
59977;DHT22;45837;51.076;3.578;2024-03-02T06:46:40;18.40;54.70
59977;DHT22;45837;51.076;3.578;2024-03-02T06:49:06;18.40;54.10
59977;DHT22;45837;51.076;3.578;2024-03-02T06:51:34;18.40;54.10
59977;DHT22;45837;51.076;3.578;2024-03-02T06:54:00;18.40;54.10
59977;DHT22;45837;51.076;3.578;2024-03-02T06:56:26;18.40;54.10
59977;DHT22;45837;51.076;3.578;2024-03-02T06:58:51;18.40;54.20
59977;DHT22;45837;51.076;3.578;2024-03-02T07:01:17;18.40;54.20
59977;DHT22;45837;51.076;3.578;2024-03-02T07:03:43;18.40;54.10
59977;DHT22;45837;51.076;3.578;2024-03-02T07:06:09;18.30;54.10
59977;DHT22;45837;51.076;3.578;2024-03-02T07:08:35;18.30;54.10
59977;DHT22;45837;51.076;3.578;2024-03-02T07:11:01;18.30;54.10
59977;DHT22;45837;51.076;3.578;2024-03-02T07:13:26;18.30;54.10
59977;DHT22;45837;51.076;3.578;2024-03-02T07:15:52;18.40;54.20
59977;DHT22;45837;51.076;3.578;2024-03-02T07:18:37;18.40;54.30
59977;DHT22;45837;51.076;3.578;2024-03-02T07:21:07;18.40;54.80
59977;DHT22;45837;51.076;3.578;2024-03-02T07:23:33;18.30;55.00
59977;DHT22;45837;51.076;3.578;2024-03-02T07:25:59;18.30;55.20
59977;DHT22;45837;51.076;3.578;2024-03-02T07:28:28;18.30;55.30
59977;DHT22;45837;51.076;3.578;2024-03-02T07:31:00;18.30;55.40
59977;DHT22;45837;51.076;3.578;2024-03-02T07:33:26;18.40;55.30
59977;DHT22;45837;51.076;3.578;2024-03-02T07:35:52;18.40;55.40
59977;DHT22;45837;51.076;3.578;2024-03-02T07:38:18;18.40;55.50
59977;DHT22;45837;51.076;3.578;2024-03-02T07:40:43;18.40;55.60
59977;DHT22;45837;51.076;3.578;2024-03-02T07:43:09;18.40;55.40
59977;DHT22;45837;51.076;3.578;2024-03-02T07:45:35;18.50;55.30
59977;DHT22;45837;51.076;3.578;2024-03-02T07:48:03;18.50;55.10
59977;DHT22;45837;51.076;3.578;2024-03-02T07:50:29;18.60;54.90
59977;DHT22;45837;51.076;3.578;2024-03-02T07:52:56;18.60;54.60
59977;DHT22;45837;51.076;3.578;2024-03-02T07:55:21;18.60;54.70
59977;DHT22;45837;51.076;3.578;2024-03-02T07:57:49;18.60;54.50
59977;DHT22;45837;51.076;3.578;2024-03-02T08:00:15;18.60;54.60
59977;DHT22;45837;51.076;3.578;2024-03-02T08:02:41;18.70;54.80
59977;DHT22;45837;51.076;3.578;2024-03-02T08:05:07;18.70;55.00
59977;DHT22;45837;51.076;3.578;2024-03-02T08:07:33;18.70;55.10
59977;DHT22;45837;51.076;3.578;2024-03-02T08:09:59;18.70;55.10
59977;DHT22;45837;51.076;3.578;2024-03-02T08:12:25;18.70;55.10
59977;DHT22;45837;51.076;3.578;2024-03-02T08:14:50;18.80;55.20
59977;DHT22;45837;51.076;3.578;2024-03-02T08:17:16;18.80;55.20
59977;DHT22;45837;51.076;3.578;2024-03-02T08:19:42;19.00;55.40
59977;DHT22;45837;51.076;3.578;2024-03-02T08:22:08;19.00;55.20
59977;DHT22;45837;51.076;3.578;2024-03-02T08:24:33;19.10;55.20
59977;DHT22;45837;51.076;3.578;2024-03-02T08:26:59;19.20;55.60
59977;DHT22;45837;51.076;3.578;2024-03-02T08:29:25;19.30;55.70
59977;DHT22;45837;51.076;3.578;2024-03-02T08:31:51;19.40;55.70
59977;DHT22;45837;51.076;3.578;2024-03-02T08:34:16;19.50;55.60
59977;DHT22;45837;51.076;3.578;2024-03-02T08:36:42;19.60;55.10
59977;DHT22;45837;51.076;3.578;2024-03-02T08:39:08;19.70;54.90
59977;DHT22;45837;51.076;3.578;2024-03-02T08:41:49;19.80;54.80
59977;DHT22;45837;51.076;3.578;2024-03-02T08:44:15;19.90;54.60
59977;DHT22;45837;51.076;3.578;2024-03-02T08:46:41;20.00;54.60
59977;DHT22;45837;51.076;3.578;2024-03-02T08:49:06;20.10;54.50
59977;DHT22;45837;51.076;3.578;2024-03-02T08:51:32;20.10;54.30
59977;DHT22;45837;51.076;3.578;2024-03-02T08:53:58;20.20;54.20
59977;DHT22;45837;51.076;3.578;2024-03-02T08:56:24;20.30;54.10
59977;DHT22;45837;51.076;3.578;2024-03-02T08:58:50;20.30;54.00
59977;DHT22;45837;51.076;3.578;2024-03-02T09:01:16;20.40;54.00
59977;DHT22;45837;51.076;3.578;2024-03-02T09:03:42;20.40;54.00
59977;DHT22;45837;51.076;3.578;2024-03-02T09:06:11;20.50;53.90
59977;DHT22;45837;51.076;3.578;2024-03-02T09:08:37;20.50;53.90
59977;DHT22;45837;51.076;3.578;2024-03-02T09:11:07;20.60;53.80
59977;DHT22;45837;51.076;3.578;2024-03-02T09:13:32;20.60;53.40
59977;DHT22;45837;51.076;3.578;2024-03-02T09:15:58;20.60;53.80
59977;DHT22;45837;51.076;3.578;2024-03-02T09:18:24;20.60;53.20
59977;DHT22;45837;51.076;3.578;2024-03-02T09:20:50;20.60;51.00
59977;DHT22;45837;51.076;3.578;2024-03-02T09:23:15;20.60;50.50
59977;DHT22;45837;51.076;3.578;2024-03-02T09:25:41;20.60;50.00
59977;DHT22;45837;51.076;3.578;2024-03-02T09:28:06;20.60;49.10
59977;DHT22;45837;51.076;3.578;2024-03-02T09:30:33;20.50;48.20
59977;DHT22;45837;51.076;3.578;2024-03-02T09:32:58;20.50;48.70
59977;DHT22;45837;51.076;3.578;2024-03-02T09:35:24;20.50;48.80
59977;DHT22;45837;51.076;3.578;2024-03-02T09:37:50;20.40;49.00
59977;DHT22;45837;51.076;3.578;2024-03-02T09:40:15;20.40;49.50
59977;DHT22;45837;51.076;3.578;2024-03-02T09:42:41;20.40;49.70
59977;DHT22;45837;51.076;3.578;2024-03-02T09:45:08;20.40;49.90
59977;DHT22;45837;51.076;3.578;2024-03-02T09:47:34;20.40;49.40
59977;DHT22;45837;51.076;3.578;2024-03-02T09:50:00;20.50;49.30
59977;DHT22;45837;51.076;3.578;2024-03-02T09:52:25;20.50;49.40
59977;DHT22;45837;51.076;3.578;2024-03-02T09:54:51;20.50;49.40
59977;DHT22;45837;51.076;3.578;2024-03-02T09:57:17;20.40;49.50
59977;DHT22;45837;51.076;3.578;2024-03-02T09:59:42;20.40;49.90
59977;DHT22;45837;51.076;3.578;2024-03-02T10:02:08;20.40;48.80
59977;DHT22;45837;51.076;3.578;2024-03-02T10:04:34;20.50;47.60
59977;DHT22;45837;51.076;3.578;2024-03-02T10:09:34;20.50;46.10
59977;DHT22;45837;51.076;3.578;2024-03-02T10:12:03;20.50;46.10
59977;DHT22;45837;51.076;3.578;2024-03-02T10:14:29;20.40;45.70
59977;DHT22;45837;51.076;3.578;2024-03-02T10:16:55;20.40;45.70
59977;DHT22;45837;51.076;3.578;2024-03-02T10:19:26;20.30;45.50
59977;DHT22;45837;51.076;3.578;2024-03-02T10:21:55;20.30;45.10
59977;DHT22;45837;51.076;3.578;2024-03-02T10:24:23;20.30;45.30
59977;DHT22;45837;51.076;3.578;2024-03-02T10:26:49;20.20;45.30
59977;DHT22;45837;51.076;3.578;2024-03-02T10:29:15;20.20;45.30
59977;DHT22;45837;51.076;3.578;2024-03-02T10:31:41;20.10;46.50
59977;DHT22;45837;51.076;3.578;2024-03-02T10:34:07;20.10;46.80
59977;DHT22;45837;51.076;3.578;2024-03-02T10:36:33;20.10;47.10
59977;DHT22;45837;51.076;3.578;2024-03-02T10:39:03;20.10;47.20
59977;DHT22;45837;51.076;3.578;2024-03-02T10:41:33;20.10;47.90
59977;DHT22;45837;51.076;3.578;2024-03-02T10:44:01;20.10;48.20
59977;DHT22;45837;51.076;3.578;2024-03-02T10:46:28;20.30;48.70
59977;DHT22;45837;51.076;3.578;2024-03-02T10:48:57;20.10;48.90
59977;DHT22;45837;51.076;3.578;2024-03-02T10:51:24;20.20;49.00
59977;DHT22;45837;51.076;3.578;2024-03-02T10:53:51;20.30;49.30
59977;DHT22;45837;51.076;3.578;2024-03-02T10:56:21;20.30;49.50
59977;DHT22;45837;51.076;3.578;2024-03-02T10:58:50;20.40;49.80
59977;DHT22;45837;51.076;3.578;2024-03-02T11:01:16;20.40;49.70
59977;DHT22;45837;51.076;3.578;2024-03-02T11:03:42;20.50;49.80
59977;DHT22;45837;51.076;3.578;2024-03-02T11:06:10;20.50;49.80
59977;DHT22;45837;51.076;3.578;2024-03-02T11:08:37;20.60;49.70
59977;DHT22;45837;51.076;3.578;2024-03-02T11:11:10;20.70;49.30
59977;DHT22;45837;51.076;3.578;2024-03-02T11:13:38;20.70;49.20
59977;DHT22;45837;51.076;3.578;2024-03-02T11:16:08;20.70;48.90
59977;DHT22;45837;51.076;3.578;2024-03-02T11:18:35;20.80;48.90
59977;DHT22;45837;51.076;3.578;2024-03-02T11:21:01;20.80;49.40
59977;DHT22;45837;51.076;3.578;2024-03-02T11:23:31;20.80;52.20
59977;DHT22;45837;51.076;3.578;2024-03-02T11:26:16;20.90;52.10
59977;DHT22;45837;51.076;3.578;2024-03-02T11:28:42;21.00;52.30
59977;DHT22;45837;51.076;3.578;2024-03-02T11:31:07;21.00;53.10
59977;DHT22;45837;51.076;3.578;2024-03-02T11:33:33;21.00;53.20
59977;DHT22;45837;51.076;3.578;2024-03-02T11:35:59;21.00;53.40
59977;DHT22;45837;51.076;3.578;2024-03-02T11:38:32;21.00;53.30
59977;DHT22;45837;51.076;3.578;2024-03-02T11:41:02;21.00;53.50
59977;DHT22;45837;51.076;3.578;2024-03-02T11:43:28;21.00;53.70
59977;DHT22;45837;51.076;3.578;2024-03-02T11:45:58;21.00;53.60
59977;DHT22;45837;51.076;3.578;2024-03-02T11:48:25;20.90;53.60
59977;DHT22;45837;51.076;3.578;2024-03-02T11:50:50;21.00;53.50
59977;DHT22;45837;51.076;3.578;2024-03-02T11:53:16;20.90;53.70
59977;DHT22;45837;51.076;3.578;2024-03-02T11:55:42;20.90;53.60
59977;DHT22;45837;51.076;3.578;2024-03-02T11:58:15;20.90;53.60
59977;DHT22;45837;51.076;3.578;2024-03-02T12:00:43;20.90;53.60
59977;DHT22;45837;51.076;3.578;2024-03-02T12:03:10;20.90;53.70
59977;DHT22;45837;51.076;3.578;2024-03-02T12:05:37;20.80;53.70
59977;DHT22;45837;51.076;3.578;2024-03-02T12:08:06;20.80;53.80
59977;DHT22;45837;51.076;3.578;2024-03-02T12:10:32;20.80;54.20
59977;DHT22;45837;51.076;3.578;2024-03-02T12:12:58;20.70;54.60
59977;DHT22;45837;51.076;3.578;2024-03-02T12:15:25;20.70;55.90
59977;DHT22;45837;51.076;3.578;2024-03-02T12:17:54;20.80;56.60
59977;DHT22;45837;51.076;3.578;2024-03-02T12:20:20;20.70;56.90
59977;DHT22;45837;51.076;3.578;2024-03-02T12:22:46;20.70;56.90
59977;DHT22;45837;51.076;3.578;2024-03-02T12:25:12;20.70;56.80
59977;DHT22;45837;51.076;3.578;2024-03-02T12:27:38;20.70;56.90
59977;DHT22;45837;51.076;3.578;2024-03-02T12:30:04;20.70;56.90
59977;DHT22;45837;51.076;3.578;2024-03-02T12:32:33;20.60;56.80
59977;DHT22;45837;51.076;3.578;2024-03-02T12:34:59;20.60;56.50
59977;DHT22;45837;51.076;3.578;2024-03-02T12:37:26;20.60;56.50
59977;DHT22;45837;51.076;3.578;2024-03-02T12:39:53;20.60;56.30
59977;DHT22;45837;51.076;3.578;2024-03-02T12:42:18;20.60;56.30
59977;DHT22;45837;51.076;3.578;2024-03-02T12:44:44;20.60;56.10
59977;DHT22;45837;51.076;3.578;2024-03-02T12:47:09;20.60;56.10
59977;DHT22;45837;51.076;3.578;2024-03-02T12:49:38;20.60;56.00
59977;DHT22;45837;51.076;3.578;2024-03-02T12:52:05;20.60;55.60
59977;DHT22;45837;51.076;3.578;2024-03-02T12:54:31;20.50;55.10
59977;DHT22;45837;51.076;3.578;2024-03-02T12:56:58;20.50;54.90
59977;DHT22;45837;51.076;3.578;2024-03-02T12:59:24;20.40;54.90
59977;DHT22;45837;51.076;3.578;2024-03-02T13:01:55;20.30;54.80
59977;DHT22;45837;51.076;3.578;2024-03-02T13:04:26;20.30;54.80
59977;DHT22;45837;51.076;3.578;2024-03-02T13:06:53;20.30;54.60
59977;DHT22;45837;51.076;3.578;2024-03-02T13:09:19;20.30;54.40
59977;DHT22;45837;51.076;3.578;2024-03-02T13:11:46;20.30;54.60
59977;DHT22;45837;51.076;3.578;2024-03-02T13:14:12;20.30;54.60
59977;DHT22;45837;51.076;3.578;2024-03-02T13:16:38;20.30;55.00
59977;DHT22;45837;51.076;3.578;2024-03-02T13:19:06;20.30;54.90
59977;DHT22;45837;51.076;3.578;2024-03-02T13:21:33;20.30;55.10
59977;DHT22;45837;51.076;3.578;2024-03-02T13:23:59;20.30;55.40
59977;DHT22;45837;51.076;3.578;2024-03-02T13:26:25;20.40;55.60
59977;DHT22;45837;51.076;3.578;2024-03-02T13:28:51;20.40;55.70
59977;DHT22;45837;51.076;3.578;2024-03-02T13:31:17;20.50;56.00
59977;DHT22;45837;51.076;3.578;2024-03-02T13:33:42;20.50;55.90
59977;DHT22;45837;51.076;3.578;2024-03-02T13:36:08;20.60;56.10
59977;DHT22;45837;51.076;3.578;2024-03-02T13:38:34;20.60;56.10
59977;DHT22;45837;51.076;3.578;2024-03-02T13:40:59;20.70;56.30
59977;DHT22;45837;51.076;3.578;2024-03-02T13:43:26;20.80;56.20
59977;DHT22;45837;51.076;3.578;2024-03-02T13:45:52;20.80;56.10
59977;DHT22;45837;51.076;3.578;2024-03-02T13:48:21;20.80;56.20
59977;DHT22;45837;51.076;3.578;2024-03-02T13:50:47;20.90;56.20
59977;DHT22;45837;51.076;3.578;2024-03-02T13:53:13;20.90;56.10
59977;DHT22;45837;51.076;3.578;2024-03-02T13:55:38;20.90;56.00
59977;DHT22;45837;51.076;3.578;2024-03-02T13:58:04;21.00;56.00
59977;DHT22;45837;51.076;3.578;2024-03-02T14:00:30;21.00;55.90
59977;DHT22;45837;51.076;3.578;2024-03-02T14:02:55;21.00;55.90
59977;DHT22;45837;51.076;3.578;2024-03-02T14:05:21;21.00;55.80
59977;DHT22;45837;51.076;3.578;2024-03-02T14:07:47;21.00;55.70
59977;DHT22;45837;51.076;3.578;2024-03-02T14:10:12;20.90;55.60
59977;DHT22;45837;51.076;3.578;2024-03-02T14:12:40;21.00;55.50
59977;DHT22;45837;51.076;3.578;2024-03-02T14:15:06;21.00;55.50
59977;DHT22;45837;51.076;3.578;2024-03-02T14:17:32;21.00;55.60
59977;DHT22;45837;51.076;3.578;2024-03-02T14:19:58;20.90;55.60
59977;DHT22;45837;51.076;3.578;2024-03-02T14:22:24;20.90;55.70
59977;DHT22;45837;51.076;3.578;2024-03-02T14:24:50;21.00;55.70
59977;DHT22;45837;51.076;3.578;2024-03-02T14:27:15;20.90;55.80
59977;DHT22;45837;51.076;3.578;2024-03-02T14:29:44;20.90;55.80
59977;DHT22;45837;51.076;3.578;2024-03-02T14:32:10;20.90;55.80
59977;DHT22;45837;51.076;3.578;2024-03-02T14:34:35;20.90;56.00
59977;DHT22;45837;51.076;3.578;2024-03-02T14:37:01;21.00;56.10
59977;DHT22;45837;51.076;3.578;2024-03-02T14:39:28;21.00;56.10
59977;DHT22;45837;51.076;3.578;2024-03-02T14:41:54;21.10;56.10
59977;DHT22;45837;51.076;3.578;2024-03-02T14:44:20;21.10;56.20
59977;DHT22;45837;51.076;3.578;2024-03-02T14:46:46;21.10;55.60
59977;DHT22;45837;51.076;3.578;2024-03-02T14:49:12;21.10;55.40
59977;DHT22;45837;51.076;3.578;2024-03-02T14:51:38;21.00;55.30
59977;DHT22;45837;51.076;3.578;2024-03-02T14:54:04;21.00;56.10
59977;DHT22;45837;51.076;3.578;2024-03-02T14:56:30;21.00;55.50
59977;DHT22;45837;51.076;3.578;2024-03-02T14:58:55;21.00;55.60
59977;DHT22;45837;51.076;3.578;2024-03-02T15:01:21;21.00;55.80
59977;DHT22;45837;51.076;3.578;2024-03-02T15:03:50;21.00;55.80
59977;DHT22;45837;51.076;3.578;2024-03-02T15:06:16;21.00;55.80
59977;DHT22;45837;51.076;3.578;2024-03-02T15:08:41;21.10;56.00
59977;DHT22;45837;51.076;3.578;2024-03-02T15:11:07;21.10;56.20
59977;DHT22;45837;51.076;3.578;2024-03-02T15:13:33;21.00;56.00
59977;DHT22;45837;51.076;3.578;2024-03-02T15:15:59;21.00;56.10
59977;DHT22;45837;51.076;3.578;2024-03-02T15:18:25;21.00;56.10
59977;DHT22;45837;51.076;3.578;2024-03-02T15:20:51;21.00;56.20
59977;DHT22;45837;51.076;3.578;2024-03-02T15:23:16;21.00;56.30
59977;DHT22;45837;51.076;3.578;2024-03-02T15:25:42;21.00;56.40
59977;DHT22;45837;51.076;3.578;2024-03-02T15:28:08;21.00;56.40
59977;DHT22;45837;51.076;3.578;2024-03-02T15:30:33;21.10;56.40
59977;DHT22;45837;51.076;3.578;2024-03-02T15:32:59;21.00;56.30
59977;DHT22;45837;51.076;3.578;2024-03-02T15:35:24;21.00;56.30